createdAt,value
2018-08-17T00:01:49.699Z,94.92
2018-08-17T00:04:16.748Z,96.33
2018-08-17T00:06:43.897Z,96.60
2018-08-17T00:09:12.252Z,96.10
2018-08-17T00:11:39.432Z,96.38
2018-08-17T00:14:07.234Z,96.63
2018-08-17T00:16:34.336Z,96.95
2018-08-17T00:19:02.151Z,96.70
2018-08-17T00:21:29.236Z,96.94
2018-08-17T00:23:56.675Z,97.51
2018-08-17T00:26:23.770Z,97.38
2018-08-17T00:28:51.097Z,97.73
2018-08-17T00:31:18.196Z,98.46
2018-08-17T00:33:45.228Z,98.24
2018-08-17T00:36:12.746Z,99.24
2018-08-17T00:38:39.743Z,98.67
2018-08-17T00:41:06.986Z,99.42
2018-08-17T00:43:34.444Z,99.54
2018-08-17T00:46:02.080Z,99.29
2018-08-17T00:48:29.147Z,99.89
2018-08-17T00:50:56.608Z,100.00
2018-08-17T00:53:23.913Z,100.00
2018-08-17T00:55:51.193Z,99.11
2018-08-17T00:58:18.252Z,98.88
2018-08-17T01:00:45.249Z,99.47
2018-08-17T01:03:12.240Z,99.40
2018-08-17T01:05:39.649Z,100.00
2018-08-17T01:08:07.304Z,100.00
2018-08-17T01:10:34.553Z,100.00
2018-08-17T01:13:01.785Z,100.00
2018-08-17T01:15:29.056Z,100.00
2018-08-17T01:17:56.255Z,100.00
2018-08-17T01:20:23.552Z,100.00
2018-08-17T01:22:50.985Z,100.00
2018-08-17T01:25:18.019Z,100.00
2018-08-17T01:27:45.020Z,100.00
2018-08-17T01:30:12.488Z,100.00
2018-08-17T01:32:39.548Z,100.00
2018-08-17T01:35:07.661Z,100.00
2018-08-17T01:37:34.938Z,100.00
2018-08-17T01:40:02.267Z,100.00
2018-08-17T01:42:29.357Z,100.00
2018-08-17T01:44:56.354Z,100.00
2018-08-17T01:47:23.444Z,100.00
2018-08-17T01:49:50.543Z,100.00
2018-08-17T01:52:19.132Z,100.00
2018-08-17T01:54:46.505Z,100.00
2018-08-17T01:57:13.539Z,100.00
2018-08-17T01:59:40.583Z,100.00
2018-08-17T02:02:07.883Z,100.00
2018-08-17T02:04:34.920Z,100.00
2018-08-17T02:07:02.230Z,100.00
2018-08-17T02:09:29.224Z,100.00
2018-08-17T02:11:56.304Z,100.00
2018-08-17T02:14:23.411Z,100.00
2018-08-17T02:16:50.670Z,100.00
2018-08-17T02:19:18.000Z,100.00
2018-08-17T02:21:45.438Z,100.00
2018-08-17T02:24:12.831Z,100.00
2018-08-17T02:26:40.104Z,100.00
2018-08-17T02:29:07.675Z,100.00
2018-08-17T02:31:34.857Z,100.00
2018-08-17T02:34:02.172Z,100.00
2018-08-17T02:36:29.188Z,100.00
2018-08-17T02:38:56.629Z,100.00
2018-08-17T02:41:23.713Z,100.00
2018-08-17T02:43:51.791Z,100.00
2018-08-17T02:46:19.469Z,100.00
2018-08-17T02:48:47.408Z,100.00
2018-08-17T02:51:14.405Z,100.00
2018-08-17T02:53:41.410Z,100.00
2018-08-17T02:56:08.418Z,100.00
2018-08-17T02:58:35.515Z,100.00
2018-08-17T03:01:02.568Z,100.00
2018-08-17T03:03:29.565Z,100.00
2018-08-17T03:05:56.578Z,100.00
2018-08-17T03:08:23.588Z,100.00
2018-08-17T03:10:50.556Z,100.00
2018-08-17T03:13:17.563Z,100.00
2018-08-17T03:15:44.612Z,100.00
2018-08-17T03:18:11.632Z,100.00
2018-08-17T03:20:38.664Z,100.00
2018-08-17T03:23:05.711Z,100.00
2018-08-17T03:25:32.762Z,100.00
2018-08-17T03:27:59.787Z,100.00
2018-08-17T03:30:26.941Z,100.00
2018-08-17T03:32:53.931Z,100.00
2018-08-17T03:35:20.920Z,100.00
2018-08-17T03:37:47.915Z,100.00
2018-08-17T03:40:14.929Z,100.00
2018-08-17T03:42:42.062Z,100.00
2018-08-17T03:45:09.111Z,100.00
2018-08-17T03:47:36.282Z,100.00
2018-08-17T03:50:03.563Z,100.00
2018-08-17T03:52:30.616Z,100.00
2018-08-17T03:54:57.644Z,100.00
2018-08-17T03:57:24.640Z,100.00
2018-08-17T03:59:51.627Z,100.00
2018-08-17T04:02:18.723Z,100.00
2018-08-17T04:04:45.743Z,100.00
2018-08-17T04:07:12.778Z,100.00
2018-08-17T04:09:39.873Z,100.00
2018-08-17T04:12:06.897Z,100.00
2018-08-17T04:14:33.946Z,100.00
2018-08-17T04:17:00.963Z,100.00
2018-08-17T04:19:27.993Z,100.00
2018-08-17T04:21:55.127Z,100.00
2018-08-17T04:24:22.239Z,100.00
2018-08-17T04:26:49.234Z,100.00
2018-08-17T04:29:16.243Z,100.00
2018-08-17T04:31:43.471Z,100.00
2018-08-17T04:34:10.489Z,100.00
2018-08-17T04:36:37.576Z,100.00
2018-08-17T04:39:08.825Z,100.00
2018-08-17T04:41:40.369Z,100.00
2018-08-17T04:44:12.235Z,100.00
2018-08-17T04:46:39.216Z,100.00
2018-08-17T04:49:06.238Z,100.00
2018-08-17T04:51:33.237Z,100.00
2018-08-17T04:54:00.236Z,100.00
2018-08-17T04:56:27.227Z,100.00
2018-08-17T05:03:27.181Z,100.00
2018-08-17T05:05:54.326Z,100.00
2018-08-17T05:08:21.376Z,100.00
2018-08-17T05:10:48.384Z,100.00
2018-08-17T05:13:15.456Z,100.00
2018-08-17T05:15:42.871Z,100.00
2018-08-17T05:18:09.847Z,100.00
2018-08-17T05:20:36.933Z,100.00
2018-08-17T05:23:10.865Z,100.00
2018-08-17T05:25:38.167Z,100.00
2018-08-17T05:28:05.265Z,100.00
2018-08-17T05:30:32.599Z,100.00
2018-08-17T05:32:59.688Z,100.00
2018-08-17T05:35:26.707Z,100.00
2018-08-17T05:37:53.679Z,100.00
2018-08-17T05:40:20.735Z,100.00
2018-08-17T05:42:47.809Z,100.00
2018-08-17T05:45:14.796Z,100.00
2018-08-17T05:47:42.011Z,100.00
2018-08-17T05:50:09.413Z,100.00
2018-08-17T05:52:36.588Z,100.00
2018-08-17T05:55:04.112Z,100.00
2018-08-17T05:57:31.235Z,100.00
2018-08-17T05:59:58.241Z,100.00
2018-08-17T06:02:25.233Z,100.00
2018-08-17T06:04:52.535Z,100.00
2018-08-17T06:07:19.856Z,100.00
2018-08-17T06:09:46.858Z,100.00
2018-08-17T06:12:13.927Z,100.00
2018-08-17T06:14:40.996Z,100.00
2018-08-17T06:17:07.999Z,100.00
2018-08-17T06:19:35.419Z,100.00
2018-08-17T06:22:02.838Z,100.00
2018-08-17T06:24:29.837Z,100.00
2018-08-17T06:26:56.883Z,100.00
2018-08-17T06:29:23.892Z,100.00
2018-08-17T06:31:51.137Z,100.00
2018-08-17T06:34:18.199Z,100.00
2018-08-17T06:36:45.176Z,100.00
2018-08-17T06:39:12.243Z,100.00
2018-08-17T06:41:39.615Z,100.00
2018-08-17T06:44:06.697Z,100.00
2018-08-17T06:46:33.894Z,100.00
2018-08-17T06:49:01.023Z,100.00
2018-08-17T06:51:28.191Z,100.00
2018-08-17T06:53:55.462Z,100.00
2018-08-17T06:56:22.624Z,99.80
2018-08-17T06:58:49.751Z,99.17
2018-08-17T07:01:16.737Z,99.21
2018-08-17T07:03:43.852Z,98.42
2018-08-17T07:06:10.869Z,97.52
2018-08-17T07:08:37.870Z,95.79
2018-08-17T07:11:04.983Z,96.43
2018-08-17T07:13:32.080Z,94.72
2018-08-17T07:15:59.152Z,93.38
2018-08-17T07:18:26.223Z,93.27
2018-08-17T07:20:53.267Z,93.96
2018-08-17T07:23:20.340Z,94.12
2018-08-17T07:25:47.415Z,94.01
2018-08-17T07:28:14.592Z,93.35
2018-08-17T07:30:41.572Z,93.13
2018-08-17T07:33:08.639Z,92.36
2018-08-17T07:35:35.669Z,91.46
2018-08-17T07:38:02.831Z,92.19
2018-08-17T07:40:29.907Z,91.56
2018-08-17T07:42:57.084Z,91.65
2018-08-17T07:45:24.209Z,91.24
2018-08-17T07:47:51.250Z,91.43
2018-08-17T07:50:19.708Z,90.91
2018-08-17T07:52:46.726Z,91.29
2018-08-17T07:55:14.016Z,90.88
2018-08-17T07:57:40.993Z,91.64
2018-08-17T08:00:07.998Z,91.54
2018-08-17T08:02:35.844Z,90.89
2018-08-17T08:05:03.195Z,90.33
2018-08-17T08:07:30.212Z,90.51
2018-08-17T08:09:57.261Z,89.89
2018-08-17T08:12:24.279Z,89.04
2018-08-17T08:14:51.345Z,86.71
2018-08-17T08:17:18.328Z,87.39
2018-08-17T08:19:55.744Z,87.53
2018-08-17T08:22:22.747Z,88.00
2018-08-17T08:24:49.737Z,85.13
2018-08-17T08:27:16.732Z,82.39
2018-08-17T08:29:43.792Z,84.99
2018-08-17T08:32:10.815Z,82.91
2018-08-17T08:34:37.821Z,80.98
2018-08-17T08:37:06.408Z,82.50
2018-08-17T08:39:33.834Z,79.16
2018-08-17T08:42:03.943Z,79.52
2018-08-17T08:44:31.041Z,78.33
2018-08-17T08:46:58.576Z,77.64
2018-08-17T08:49:25.983Z,78.09
2018-08-17T08:51:53.094Z,77.93
2018-08-17T08:54:21.497Z,77.65
2018-08-17T08:56:49.122Z,77.14
2018-08-17T08:59:17.433Z,77.36
2018-08-17T09:01:46.155Z,76.78
2018-08-17T09:04:14.140Z,76.77
2018-08-17T09:06:44.070Z,77.20
2018-08-17T09:09:11.991Z,76.68
2018-08-17T09:11:40.135Z,78.09
2018-08-17T09:14:09.053Z,77.54
2018-08-17T09:16:36.236Z,78.53
2018-08-17T09:19:03.540Z,77.42
2018-08-17T09:21:30.546Z,77.50
2018-08-17T09:23:57.549Z,77.12
2018-08-17T09:26:24.617Z,75.80
2018-08-17T09:28:58.488Z,75.66
2018-08-17T09:31:25.587Z,74.88
2018-08-17T09:33:52.806Z,74.48
2018-08-17T09:36:20.273Z,74.24
2018-08-17T09:38:47.480Z,75.28
2018-08-17T09:41:14.478Z,75.55
2018-08-17T09:43:41.482Z,74.91
2018-08-17T09:46:09.644Z,75.48
2018-08-17T09:48:36.681Z,75.59
2018-08-17T09:51:04.239Z,76.43
2018-08-17T09:53:31.256Z,76.98
2018-08-17T09:55:58.282Z,77.89
2018-08-17T09:58:25.279Z,79.83
2018-08-17T10:00:58.155Z,79.02
2018-08-17T10:03:31.033Z,79.78
2018-08-17T10:06:04.040Z,81.63
2018-08-17T10:08:32.739Z,83.82
2018-08-17T10:10:59.958Z,83.88
2018-08-17T10:13:27.029Z,85.34
2018-08-17T10:15:54.044Z,85.04
2018-08-17T10:18:23.359Z,85.80
2018-08-17T10:20:50.696Z,85.33
2018-08-17T10:23:23.513Z,86.46
2018-08-17T10:25:50.600Z,87.02
2018-08-17T10:28:17.827Z,86.32
2018-08-17T10:30:44.904Z,86.96
2018-08-17T10:33:11.972Z,88.09
2018-08-17T10:35:38.973Z,88.03
2018-08-17T10:38:06.889Z,88.04
2018-08-17T10:40:33.960Z,89.21
2018-08-17T10:43:02.219Z,88.87
2018-08-17T10:45:29.461Z,89.41
2018-08-17T10:47:56.908Z,89.33
2018-08-17T10:50:25.409Z,88.68
2018-08-17T10:52:53.592Z,90.05
2018-08-17T10:55:21.750Z,88.92
2018-08-17T10:57:48.767Z,89.32
2018-08-17T11:00:17.950Z,89.48
2018-08-17T11:02:45.261Z,89.40
2018-08-17T11:05:13.637Z,89.90
2018-08-17T11:07:40.723Z,90.01
2018-08-17T11:10:09.379Z,90.86
2018-08-17T11:12:37.416Z,91.99
2018-08-17T11:15:04.885Z,93.36
2018-08-17T11:17:31.913Z,94.93
2018-08-17T11:19:58.904Z,94.83
2018-08-17T11:22:25.992Z,97.37
2018-08-17T11:24:52.987Z,98.94
2018-08-17T11:27:19.980Z,100.00
2018-08-17T11:29:46.985Z,100.00
2018-08-17T11:32:14.181Z,100.00
2018-08-17T11:34:41.183Z,100.00
2018-08-17T11:37:08.192Z,100.00
2018-08-17T11:39:35.524Z,100.00
2018-08-17T11:42:02.556Z,100.00
2018-08-17T11:44:29.565Z,100.00
2018-08-17T11:46:59.290Z,100.00
2018-08-17T11:49:26.604Z,100.00
2018-08-17T11:51:53.596Z,100.00
2018-08-17T11:54:20.691Z,100.00
2018-08-17T11:56:47.682Z,100.00
2018-08-17T11:59:14.663Z,100.00
2018-08-17T12:01:41.664Z,100.00
2018-08-17T12:04:08.740Z,100.00
2018-08-17T12:06:35.737Z,100.00
2018-08-17T12:09:02.856Z,100.00
2018-08-17T12:11:29.855Z,100.00
2018-08-17T12:13:57.187Z,100.00
2018-08-17T12:16:24.200Z,100.00
2018-08-17T12:18:51.512Z,100.00
2018-08-17T12:21:18.497Z,100.00
2018-08-17T12:23:45.582Z,99.68
2018-08-17T12:26:12.624Z,100.00
2018-08-17T12:28:39.593Z,100.00
2018-08-17T12:31:06.592Z,100.00
2018-08-17T12:33:33.656Z,99.00
2018-08-17T12:36:00.631Z,98.28
2018-08-17T12:38:28.063Z,97.60
2018-08-17T12:40:56.242Z,96.19
2018-08-17T12:43:38.587Z,95.19
2018-08-17T12:46:05.690Z,94.49
2018-08-17T12:48:32.709Z,93.11
2018-08-17T12:51:03.487Z,92.78
2018-08-17T12:53:30.796Z,92.34
2018-08-17T12:55:57.795Z,92.58
2018-08-17T12:58:24.788Z,89.93
2018-08-17T13:00:51.782Z,87.76
2018-08-17T13:03:18.918Z,87.57
2018-08-17T13:05:45.981Z,88.70
2018-08-17T13:08:13.072Z,88.84
2018-08-17T13:10:40.057Z,86.68
2018-08-17T13:13:08.412Z,86.22
2018-08-17T13:15:36.087Z,86.76
2018-08-17T13:18:11.634Z,87.50
2018-08-17T13:20:38.773Z,87.95
2018-08-17T13:23:05.790Z,89.20
2018-08-17T13:25:32.937Z,90.48
2018-08-17T13:28:00.246Z,88.81
2018-08-17T13:30:27.389Z,88.76
2018-08-17T13:32:54.426Z,88.00
2018-08-17T13:35:21.435Z,88.85
2018-08-17T13:37:48.507Z,88.80
2018-08-17T13:40:15.517Z,89.50
2018-08-17T13:42:42.512Z,90.28
2018-08-17T13:45:09.886Z,89.31
2018-08-17T13:47:36.968Z,90.97
2018-08-17T13:50:04.584Z,88.69
2018-08-17T13:52:31.609Z,89.98
2018-08-17T13:54:58.778Z,90.22
2018-08-17T13:57:26.058Z,89.23
2018-08-17T13:59:53.134Z,89.01
2018-08-17T14:02:20.142Z,90.05
2018-08-17T14:04:47.155Z,88.72
2018-08-17T14:07:14.139Z,89.63
2018-08-17T14:09:41.171Z,90.31
2018-08-17T14:12:08.604Z,89.41
2018-08-17T14:14:35.636Z,87.72
2018-08-17T14:17:02.739Z,88.38
2018-08-17T14:19:29.727Z,88.38
2018-08-17T14:21:56.796Z,88.92
2018-08-17T14:24:24.080Z,87.61
2018-08-17T14:26:51.076Z,87.55
2018-08-17T14:29:18.071Z,88.06
2018-08-17T14:31:45.175Z,89.28
2018-08-17T14:34:12.187Z,89.55
2018-08-17T14:36:39.212Z,91.48
2018-08-17T14:39:06.376Z,90.03
2018-08-17T14:42:07.408Z,89.59
2018-08-17T14:44:34.478Z,88.73
2018-08-17T14:47:01.525Z,89.56
2018-08-17T14:49:28.836Z,88.50
2018-08-17T14:51:56.117Z,89.53
2018-08-17T14:54:23.057Z,89.48
2018-08-17T14:56:50.041Z,89.20
2018-08-17T14:59:17.640Z,89.31
2018-08-17T15:01:44.876Z,87.67
2018-08-17T15:04:11.871Z,86.08
2018-08-17T15:06:38.903Z,85.06
2018-08-17T15:09:11.357Z,86.08
2018-08-17T15:11:39.344Z,87.21
2018-08-17T15:14:06.403Z,86.40
2018-08-17T15:16:33.633Z,85.60
2018-08-17T15:19:00.659Z,85.65
2018-08-17T15:21:27.647Z,84.40
2018-08-17T15:23:54.619Z,87.43
2018-08-17T15:26:22.504Z,84.77
2018-08-17T15:28:49.560Z,84.05
2018-08-17T15:31:16.669Z,83.52
2018-08-17T15:33:43.915Z,82.13
2018-08-17T15:36:11.477Z,80.86
2018-08-17T15:38:38.484Z,80.24
2018-08-17T15:41:05.525Z,81.26
2018-08-17T15:43:32.591Z,82.43
2018-08-17T15:45:59.615Z,82.96
2018-08-17T15:48:26.620Z,80.57
2018-08-17T15:50:53.609Z,82.06
2018-08-17T15:53:20.623Z,80.89
2018-08-17T15:55:47.772Z,81.66
2018-08-17T15:58:14.800Z,80.17
2018-08-17T16:00:41.820Z,80.37
2018-08-17T16:03:08.904Z,81.42
2018-08-17T16:05:35.912Z,80.48
2018-08-17T16:08:02.968Z,80.03
2018-08-17T16:10:30.261Z,79.06
2018-08-17T16:12:57.140Z,80.50
2018-08-17T16:15:24.144Z,80.77
2018-08-17T16:17:51.159Z,80.16
2018-08-17T16:20:18.182Z,82.03
2018-08-17T16:22:45.183Z,81.88
2018-08-17T16:25:12.692Z,80.84
2018-08-17T16:27:40.457Z,81.16
2018-08-17T16:30:09.357Z,81.70
2018-08-17T16:32:36.355Z,82.16
2018-08-17T16:35:03.660Z,80.61
2018-08-17T16:37:31.100Z,79.43
2018-08-17T16:39:58.056Z,78.18
2018-08-17T16:42:30.690Z,78.96
2018-08-17T16:44:57.738Z,76.55
2018-08-17T16:47:25.025Z,78.29
2018-08-17T16:49:52.357Z,74.46
2018-08-17T16:52:19.511Z,74.77
2018-08-17T16:54:46.508Z,74.89
2018-08-17T16:57:13.484Z,74.73
2018-08-17T16:59:40.598Z,73.28
2018-08-17T17:02:07.585Z,72.87
2018-08-17T17:04:39.248Z,72.62
2018-08-17T17:07:06.527Z,72.40
2018-08-17T17:09:33.554Z,73.38
2018-08-17T17:12:00.635Z,70.58
2018-08-17T17:14:27.967Z,74.37
2018-08-17T17:16:55.053Z,69.80
2018-08-17T17:19:22.099Z,67.84
2018-08-17T17:21:50.850Z,67.32
2018-08-17T17:24:18.446Z,68.12
2018-08-17T17:26:45.539Z,65.76
2018-08-17T17:29:12.632Z,64.32
2018-08-17T17:31:40.160Z,66.18
2018-08-17T17:34:07.431Z,60.81
2018-08-17T17:36:34.496Z,63.18
2018-08-17T17:39:01.483Z,60.63
2018-08-17T17:41:28.476Z,62.62
2018-08-17T17:43:55.808Z,64.95
2018-08-17T17:46:22.918Z,61.77
2018-08-17T17:48:50.351Z,61.41
2018-08-17T17:51:17.350Z,63.65
2018-08-17T17:53:44.350Z,62.79
2018-08-17T17:56:11.480Z,63.84
2018-08-17T17:58:38.464Z,63.23
2018-08-17T18:01:06.571Z,61.90
2018-08-17T18:03:33.599Z,63.41
2018-08-17T18:06:02.931Z,62.67
2018-08-17T18:08:30.447Z,63.48
2018-08-17T18:10:57.544Z,63.88
2018-08-17T18:13:24.999Z,65.12
2018-08-17T18:15:52.120Z,62.87
2018-08-17T18:18:19.134Z,64.43
2018-08-17T18:20:46.203Z,63.95
2018-08-17T18:23:13.226Z,64.73
2018-08-17T18:25:40.488Z,65.28
2018-08-17T18:28:07.875Z,66.52
2018-08-17T18:30:35.025Z,67.47
2018-08-17T18:33:02.039Z,66.34
2018-08-17T18:35:29.192Z,66.33
2018-08-17T18:37:56.306Z,66.82
2018-08-17T18:40:23.354Z,67.90
2018-08-17T18:42:50.367Z,67.93
2018-08-17T18:45:17.363Z,68.32
2018-08-17T18:47:44.373Z,69.96
2018-08-17T18:50:11.372Z,68.34
2018-08-17T18:52:38.417Z,71.85
2018-08-17T18:55:05.458Z,72.46
2018-08-17T18:57:32.540Z,69.76
2018-08-17T19:00:00.328Z,72.54
2018-08-17T19:02:27.424Z,71.53
2018-08-17T19:04:54.420Z,71.78
2018-08-17T19:07:22.075Z,72.62
2018-08-17T19:09:49.339Z,73.58
2018-08-17T19:12:16.324Z,72.24
2018-08-17T19:14:46.970Z,73.62
2018-08-17T19:17:19.885Z,73.25
2018-08-17T19:19:47.136Z,73.11
2018-08-17T19:22:14.361Z,72.77
2018-08-17T19:24:41.447Z,73.25
2018-08-17T19:27:08.696Z,73.16
2018-08-17T19:29:36.127Z,74.01
2018-08-17T19:32:03.581Z,74.23
2018-08-17T19:34:31.150Z,74.55
2018-08-17T19:37:00.214Z,75.75
2018-08-17T19:39:32.873Z,76.49
2018-08-17T19:41:59.968Z,76.16
2018-08-17T19:44:27.355Z,75.91
2018-08-17T19:46:54.566Z,75.76
2018-08-17T19:49:21.547Z,75.45
2018-08-17T19:51:48.633Z,76.09
2018-08-17T19:54:15.647Z,76.36
2018-08-17T19:56:42.683Z,76.10
2018-08-17T19:59:09.715Z,77.01
2018-08-17T20:01:36.898Z,75.91
2018-08-17T20:04:04.193Z,77.52
2018-08-17T20:06:31.184Z,77.86
2018-08-17T20:08:58.216Z,78.37
2018-08-17T20:11:25.321Z,78.60
2018-08-17T20:13:52.352Z,79.34
2018-08-17T20:16:24.831Z,79.38
2018-08-17T20:18:52.187Z,78.68
2018-08-17T20:21:22.187Z,79.08
2018-08-17T20:23:49.557Z,78.94
2018-08-17T20:26:16.780Z,79.57
2018-08-17T20:28:43.795Z,80.66
2018-08-17T20:31:11.095Z,81.31
2018-08-17T20:33:38.311Z,80.75
2018-08-17T20:36:05.364Z,81.47
2018-08-17T20:38:32.543Z,81.77
2018-08-17T20:41:00.580Z,82.87
2018-08-17T20:43:27.789Z,82.38
2018-08-17T20:45:54.842Z,82.82
2018-08-17T20:48:22.146Z,82.76
2018-08-17T20:50:49.463Z,82.98
2018-08-17T20:53:18.828Z,83.28
2018-08-17T20:55:46.533Z,82.58
2018-08-17T20:58:13.805Z,83.86
2018-08-17T21:00:41.394Z,85.43
2018-08-17T21:03:08.490Z,85.02
2018-08-17T21:05:35.826Z,85.05
2018-08-17T21:08:03.222Z,85.64
2018-08-17T21:10:30.335Z,86.24
2018-08-17T21:12:57.647Z,86.01
2018-08-17T21:15:25.152Z,86.58
2018-08-17T21:17:52.420Z,85.95
2018-08-17T21:20:19.862Z,85.72
2018-08-17T21:22:47.215Z,85.94
2018-08-17T21:25:15.091Z,85.30
2018-08-17T21:27:42.342Z,86.36
2018-08-17T21:30:10.052Z,87.15
2018-08-17T21:32:37.442Z,88.19
2018-08-17T21:35:05.556Z,88.04
2018-08-17T21:37:32.868Z,87.91
2018-08-17T21:40:00.065Z,87.82
2018-08-17T21:42:27.423Z,88.42
2018-08-17T21:44:54.841Z,88.27
2018-08-17T21:47:22.042Z,88.43
2018-08-17T21:49:49.279Z,88.81
2018-08-17T21:52:22.621Z,88.33
2018-08-17T21:54:49.705Z,88.39
2018-08-17T21:57:17.300Z,88.48
2018-08-17T21:59:50.767Z,88.36
2018-08-17T22:02:18.778Z,88.02
2018-08-17T22:04:45.960Z,88.65
2018-08-17T22:07:18.222Z,88.66
2018-08-17T22:09:45.504Z,88.97
2018-08-17T22:12:13.284Z,89.87
2018-08-17T22:14:40.643Z,90.84
2018-08-17T22:17:18.107Z,90.48
2018-08-17T22:19:46.240Z,91.82
2018-08-17T22:22:14.538Z,91.01
2018-08-17T22:24:50.962Z,91.63
2018-08-17T22:27:18.978Z,92.70
2018-08-17T22:29:48.032Z,92.22
2018-08-17T22:32:15.034Z,92.21
2018-08-17T22:34:42.543Z,93.53
2018-08-17T22:37:09.580Z,93.86
2018-08-17T22:39:37.221Z,92.85
2018-08-17T22:42:04.500Z,92.94
2018-08-17T22:44:32.017Z,92.56
2018-08-17T22:47:28.443Z,92.28
2018-08-17T22:49:56.307Z,92.74
2018-08-17T22:52:23.708Z,93.89
2018-08-17T22:54:54.625Z,94.36
2018-08-17T22:57:21.647Z,93.71
2018-08-17T23:00:06.160Z,93.18
2018-08-17T23:02:33.153Z,93.47
2018-08-17T23:05:00.220Z,93.19
2018-08-17T23:07:27.298Z,93.69
2018-08-17T23:09:54.344Z,94.69
2018-08-17T23:12:21.360Z,95.06
2018-08-17T23:14:48.525Z,94.82
2018-08-17T23:17:15.523Z,95.19
2018-08-17T23:19:42.546Z,95.02
2018-08-17T23:22:09.556Z,94.59
2018-08-17T23:24:36.568Z,94.55
2018-08-17T23:27:03.599Z,95.79
2018-08-17T23:29:30.568Z,96.84
2018-08-17T23:31:57.626Z,96.63
2018-08-17T23:34:24.631Z,95.80
2018-08-17T23:36:51.600Z,95.30
2018-08-17T23:39:18.629Z,95.56
2018-08-17T23:41:45.622Z,95.12
2018-08-17T23:44:12.618Z,95.65
2018-08-17T23:46:39.663Z,96.81
2018-08-17T23:49:06.684Z,97.00
2018-08-17T23:51:33.781Z,96.71
2018-08-17T23:54:00.759Z,96.30
2018-08-17T23:56:27.771Z,97.22
2018-08-17T23:58:54.767Z,98.25
